Van Voorhis, Pennsylvania
Current Conditions -  °F | °C
As of 4:44 PM on Thursday 27 Nov 2014 (Local Time) from KAGC Reporting Station
Moderate Snow Moderate Snow  
Wind Chill: 22°   Ceiling: 700
Heat Index: 30°   Visibility: 0.5mi
Dew Point: 25°   Wind: 9mph
Humidity: 82%   Direction: 310°NW
Pressure: 30.11"   Gusts: 20mph
Location:  40.16°N, 79.97°W
Report Text: KAGC 272144Z 31008G17KT 1/2SM R28/4000VP6000FT SN BKN007 BKN013 OVC032 M01/M04 A3011 RMK AO2 SNB09 P0000 T10111039
Loading
Personal Weather Stations






























Interactive Weather Map New forecast layout! Learn more

10-Day Weather Forecast

Advertisements
Track Severe Weather on mobile